sensor_id;sensor_type;location;lat;lon;timestamp;P1;durP1;ratioP1;P2;durP2;ratioP2
6862;SDS011;3470;48.738;9.616;2023-04-28T13:08:07;1.30;;;1.20;;
6862;SDS011;3470;48.738;9.616;2023-04-28T13:10:33;1.00;;;1.00;;
6862;SDS011;3470;48.738;9.616;2023-04-28T13:12:59;1.50;;;1.30;;
6862;SDS011;3470;48.738;9.616;2023-04-28T13:15:24;2.08;;;1.40;;
6862;SDS011;3470;48.738;9.616;2023-04-28T13:17:51;2.10;;;1.90;;
6862;SDS011;3470;48.738;9.616;2023-04-28T13:20:16;9.77;;;7.75;;
6862;SDS011;3470;48.738;9.616;2023-04-28T13:22:42;13.23;;;10.52;;
6862;SDS011;3470;48.738;9.616;2023-04-28T13:25:08;2.15;;;1.40;;
6862;SDS011;3470;48.738;9.616;2023-04-28T13:27:34;3.95;;;3.55;;
6862;SDS011;3470;48.738;9.616;2023-04-28T13:30:00;3.50;;;2.65;;
6862;SDS011;3470;48.738;9.616;2023-04-28T13:32:27;5.15;;;3.90;;
6862;SDS011;3470;48.738;9.616;2023-04-28T13:34:53;3.03;;;2.70;;
6862;SDS011;3470;48.738;9.616;2023-04-28T13:37:19;6.70;;;3.83;;
6862;SDS011;3470;48.738;9.616;2023-04-28T13:39:45;5.68;;;4.65;;
6862;SDS011;3470;48.738;9.616;2023-04-28T13:42:10;3.03;;;2.00;;
6862;SDS011;3470;48.738;9.616;2023-04-28T17:02:38;5.17;;;3.60;;
6862;SDS011;3470;48.738;9.616;2023-04-28T17:05:04;7.47;;;4.90;;
6862;SDS011;3470;48.738;9.616;2023-04-28T17:07:30;6.40;;;4.53;;
6862;SDS011;3470;48.738;9.616;2023-04-28T17:09:56;7.57;;;4.60;;
6862;SDS011;3470;48.738;9.616;2023-04-28T17:12:21;6.10;;;4.47;;
6862;SDS011;3470;48.738;9.616;2023-04-28T17:14:47;5.73;;;4.23;;
6862;SDS011;3470;48.738;9.616;2023-04-28T17:17:14;5.67;;;4.57;;
6862;SDS011;3470;48.738;9.616;2023-04-28T17:19:41;4.07;;;3.73;;
6862;SDS011;3470;48.738;9.616;2023-04-28T17:22:07;4.63;;;4.23;;
6862;SDS011;3470;48.738;9.616;2023-04-28T17:24:33;4.77;;;3.80;;
6862;SDS011;3470;48.738;9.616;2023-04-28T17:26:58;4.80;;;3.63;;
6862;SDS011;3470;48.738;9.616;2023-04-28T17:29:25;5.33;;;4.07;;
6862;SDS011;3470;48.738;9.616;2023-04-28T17:31:50;4.60;;;3.27;;
6862;SDS011;3470;48.738;9.616;2023-04-28T17:34:16;4.30;;;4.00;;
6862;SDS011;3470;48.738;9.616;2023-04-28T17:36:44;16.23;;;12.63;;
6862;SDS011;3470;48.738;9.616;2023-04-28T17:39:10;14.23;;;12.60;;
6862;SDS011;3470;48.738;9.616;2023-04-28T17:41:37;8.33;;;7.53;;
6862;SDS011;3470;48.738;9.616;2023-04-28T17:44:02;5.97;;;4.97;;
6862;SDS011;3470;48.738;9.616;2023-04-28T17:46:28;5.40;;;3.80;;
6862;SDS011;3470;48.738;9.616;2023-04-28T17:48:54;4.20;;;3.90;;
6862;SDS011;3470;48.738;9.616;2023-04-28T17:51:19;3.67;;;3.00;;
6862;SDS011;3470;48.738;9.616;2023-04-28T17:53:45;3.70;;;3.40;;
6862;SDS011;3470;48.738;9.616;2023-04-28T17:56:12;4.60;;;3.60;;
6862;SDS011;3470;48.738;9.616;2023-04-28T17:58:38;7.13;;;5.67;;
6862;SDS011;3470;48.738;9.616;2023-04-28T18:01:05;8.57;;;6.00;;
6862;SDS011;3470;48.738;9.616;2023-04-28T18:03:34;13.80;;;5.80;;
6862;SDS011;3470;48.738;9.616;2023-04-28T18:06:01;8.87;;;5.20;;
6862;SDS011;3470;48.738;9.616;2023-04-28T18:08:30;8.57;;;4.63;;
6862;SDS011;3470;48.738;9.616;2023-04-28T18:10:56;6.20;;;4.27;;
6862;SDS011;3470;48.738;9.616;2023-04-28T18:13:22;4.60;;;4.10;;
6862;SDS011;3470;48.738;9.616;2023-04-28T18:15:47;6.97;;;4.43;;
6862;SDS011;3470;48.738;9.616;2023-04-28T18:18:13;5.77;;;4.37;;
6862;SDS011;3470;48.738;9.616;2023-04-28T18:20:40;8.30;;;4.90;;
6862;SDS011;3470;48.738;9.616;2023-04-28T18:23:06;4.70;;;4.20;;
6862;SDS011;3470;48.738;9.616;2023-04-28T18:25:32;6.47;;;4.53;;
6862;SDS011;3470;48.738;9.616;2023-04-28T18:27:59;6.33;;;4.57;;
6862;SDS011;3470;48.738;9.616;2023-04-28T18:30:25;7.90;;;5.50;;
6862;SDS011;3470;48.738;9.616;2023-04-28T18:32:50;6.63;;;5.13;;
6862;SDS011;3470;48.738;9.616;2023-04-28T18:35:16;5.50;;;5.00;;
6862;SDS011;3470;48.738;9.616;2023-04-28T18:37:42;6.30;;;5.70;;
6862;SDS011;3470;48.738;9.616;2023-04-28T18:40:09;7.33;;;6.03;;
6862;SDS011;3470;48.738;9.616;2023-04-28T18:42:34;8.10;;;6.67;;
6862;SDS011;3470;48.738;9.616;2023-04-28T18:45:00;19.60;;;7.30;;
6862;SDS011;3470;48.738;9.616;2023-04-28T18:47:26;10.57;;;6.33;;
6862;SDS011;3470;48.738;9.616;2023-04-28T18:49:52;10.37;;;7.67;;
6862;SDS011;3470;48.738;9.616;2023-04-28T18:52:18;7.37;;;6.23;;
6862;SDS011;3470;48.738;9.616;2023-04-28T18:54:43;9.83;;;7.03;;
6862;SDS011;3470;48.738;9.616;2023-04-28T18:57:09;8.57;;;6.70;;
6862;SDS011;3470;48.738;9.616;2023-04-28T18:59:35;9.20;;;6.83;;
6862;SDS011;3470;48.738;9.616;2023-04-28T19:02:01;8.63;;;6.60;;
6862;SDS011;3470;48.738;9.616;2023-04-28T19:04:27;6.93;;;6.17;;
6862;SDS011;3470;48.738;9.616;2023-04-28T19:06:53;6.10;;;5.53;;
6862;SDS011;3470;48.738;9.616;2023-04-28T19:09:19;6.87;;;6.17;;
6862;SDS011;3470;48.738;9.616;2023-04-28T19:11:44;8.97;;;6.60;;
6862;SDS011;3470;48.738;9.616;2023-04-28T19:14:10;22.77;;;6.57;;
6862;SDS011;3470;48.738;9.616;2023-04-28T19:16:36;20.67;;;6.00;;
6862;SDS011;3470;48.738;9.616;2023-04-28T19:19:02;8.87;;;5.90;;
6862;SDS011;3470;48.738;9.616;2023-04-28T19:21:27;10.10;;;4.43;;
6862;SDS011;3470;48.738;9.616;2023-04-28T19:23:54;12.13;;;4.17;;
6862;SDS011;3470;48.738;9.616;2023-04-28T19:26:19;4.33;;;3.93;;
6862;SDS011;3470;48.738;9.616;2023-04-28T19:28:45;5.10;;;4.30;;
6862;SDS011;3470;48.738;9.616;2023-04-28T19:31:10;6.07;;;4.43;;
6862;SDS011;3470;48.738;9.616;2023-04-28T19:33:36;8.77;;;5.27;;
6862;SDS011;3470;48.738;9.616;2023-04-28T19:36:02;12.43;;;5.10;;
6862;SDS011;3470;48.738;9.616;2023-04-28T19:38:28;23.63;;;5.50;;
6862;SDS011;3470;48.738;9.616;2023-04-28T19:41:00;10.53;;;3.40;;
6862;SDS011;3470;48.738;9.616;2023-04-28T19:43:26;53.90;;;5.70;;
6862;SDS011;3470;48.738;9.616;2023-04-28T19:45:51;8.30;;;4.07;;
6862;SDS011;3470;48.738;9.616;2023-04-28T19:48:17;62.70;;;5.87;;
6862;SDS011;3470;48.738;9.616;2023-04-28T19:50:43;7.37;;;3.23;;
6862;SDS011;3470;48.738;9.616;2023-04-28T19:53:09;22.67;;;3.40;;
6862;SDS011;3470;48.738;9.616;2023-04-28T19:55:35;34.40;;;7.60;;
6862;SDS011;3470;48.738;9.616;2023-04-28T19:58:03;27.77;;;17.97;;
6862;SDS011;3470;48.738;9.616;2023-04-28T20:00:30;59.83;;;46.37;;
6862;SDS011;3470;48.738;9.616;2023-04-28T20:02:55;19.53;;;15.10;;
6862;SDS011;3470;48.738;9.616;2023-04-28T20:05:21;23.47;;;18.57;;
6862;SDS011;3470;48.738;9.616;2023-04-28T20:07:47;21.37;;;15.77;;
6862;SDS011;3470;48.738;9.616;2023-04-28T20:10:13;21.77;;;14.67;;
6862;SDS011;3470;48.738;9.616;2023-04-28T20:12:39;159.43;;;17.13;;
6862;SDS011;3470;48.738;9.616;2023-04-28T20:15:05;138.70;;;16.47;;
6862;SDS011;3470;48.738;9.616;2023-04-28T20:17:35;146.20;;;14.10;;
6862;SDS011;3470;48.738;9.616;2023-04-28T20:20:01;63.67;;;12.07;;
6862;SDS011;3470;48.738;9.616;2023-04-28T20:22:29;61.30;;;11.10;;
6862;SDS011;3470;48.738;9.616;2023-04-28T20:24:55;48.70;;;12.97;;
6862;SDS011;3470;48.738;9.616;2023-04-28T20:27:24;122.17;;;31.13;;
6862;SDS011;3470;48.738;9.616;2023-04-28T20:29:50;55.07;;;23.10;;
6862;SDS011;3470;48.738;9.616;2023-04-28T20:32:17;234.93;;;44.23;;
6862;SDS011;3470;48.738;9.616;2023-04-28T20:34:43;158.10;;;30.13;;
6862;SDS011;3470;48.738;9.616;2023-04-28T20:37:09;331.07;;;48.30;;
6862;SDS011;3470;48.738;9.616;2023-04-28T20:39:35;112.30;;;31.00;;
6862;SDS011;3470;48.738;9.616;2023-04-28T20:42:01;62.63;;;23.57;;
6862;SDS011;3470;48.738;9.616;2023-04-28T20:44:27;72.93;;;26.17;;
6862;SDS011;3470;48.738;9.616;2023-04-28T20:46:52;52.30;;;29.07;;
6862;SDS011;3470;48.738;9.616;2023-04-28T20:49:19;45.80;;;30.67;;
6862;SDS011;3470;48.738;9.616;2023-04-28T20:51:44;41.33;;;25.73;;
6862;SDS011;3470;48.738;9.616;2023-04-28T20:54:10;38.93;;;24.73;;
6862;SDS011;3470;48.738;9.616;2023-04-28T20:56:36;32.37;;;21.67;;
6862;SDS011;3470;48.738;9.616;2023-04-28T20:59:02;29.60;;;20.33;;
6862;SDS011;3470;48.738;9.616;2023-04-28T21:01:27;28.70;;;20.20;;
6862;SDS011;3470;48.738;9.616;2023-04-28T21:03:53;28.80;;;19.00;;
6862;SDS011;3470;48.738;9.616;2023-04-28T21:06:19;27.40;;;17.47;;
6862;SDS011;3470;48.738;9.616;2023-04-28T21:08:44;18.10;;;12.50;;
6862;SDS011;3470;48.738;9.616;2023-04-28T21:11:13;17.47;;;11.50;;
6862;SDS011;3470;48.738;9.616;2023-04-28T21:13:40;13.63;;;9.40;;
6862;SDS011;3470;48.738;9.616;2023-04-28T21:16:16;15.13;;;11.23;;
6862;SDS011;3470;48.738;9.616;2023-04-28T21:18:44;14.83;;;10.43;;
6862;SDS011;3470;48.738;9.616;2023-04-28T21:21:10;18.23;;;12.87;;
6862;SDS011;3470;48.738;9.616;2023-04-28T21:23:37;27.07;;;17.27;;
6862;SDS011;3470;48.738;9.616;2023-04-28T21:26:07;28.67;;;16.57;;
6862;SDS011;3470;48.738;9.616;2023-04-28T21:28:33;23.73;;;16.00;;
6862;SDS011;3470;48.738;9.616;2023-04-28T21:31:00;25.53;;;17.50;;
6862;SDS011;3470;48.738;9.616;2023-04-28T21:33:27;26.40;;;16.90;;
6862;SDS011;3470;48.738;9.616;2023-04-28T21:35:53;23.57;;;15.40;;
6862;SDS011;3470;48.738;9.616;2023-04-28T21:38:19;46.93;;;23.87;;
6862;SDS011;3470;48.738;9.616;2023-04-28T21:40:45;80.47;;;38.23;;
6862;SDS011;3470;48.738;9.616;2023-04-28T21:43:10;43.30;;;25.10;;
6862;SDS011;3470;48.738;9.616;2023-04-28T21:45:36;70.80;;;32.17;;
6862;SDS011;3470;48.738;9.616;2023-04-28T21:48:02;57.87;;;31.63;;
6862;SDS011;3470;48.738;9.616;2023-04-28T21:50:27;77.40;;;30.40;;
6862;SDS011;3470;48.738;9.616;2023-04-28T21:52:53;76.20;;;26.37;;
6862;SDS011;3470;48.738;9.616;2023-04-28T21:55:19;38.17;;;24.70;;
6862;SDS011;3470;48.738;9.616;2023-04-28T21:57:44;29.87;;;21.63;;
6862;SDS011;3470;48.738;9.616;2023-04-28T22:00:10;24.43;;;18.87;;
6862;SDS011;3470;48.738;9.616;2023-04-28T22:02:39;28.93;;;18.57;;
6862;SDS011;3470;48.738;9.616;2023-04-28T22:05:06;22.13;;;18.47;;
6862;SDS011;3470;48.738;9.616;2023-04-28T22:07:32;22.73;;;19.83;;
6862;SDS011;3470;48.738;9.616;2023-04-28T22:09:58;26.40;;;22.10;;
6862;SDS011;3470;48.738;9.616;2023-04-28T22:12:24;23.80;;;18.97;;
6862;SDS011;3470;48.738;9.616;2023-04-28T22:14:49;29.90;;;22.40;;
6862;SDS011;3470;48.738;9.616;2023-04-28T22:17:15;26.63;;;19.53;;
6862;SDS011;3470;48.738;9.616;2023-04-28T22:19:41;31.60;;;23.17;;
6862;SDS011;3470;48.738;9.616;2023-04-28T22:22:07;22.30;;;18.67;;
6862;SDS011;3470;48.738;9.616;2023-04-28T22:24:32;22.87;;;17.97;;
6862;SDS011;3470;48.738;9.616;2023-04-28T22:26:58;22.40;;;17.33;;
6862;SDS011;3470;48.738;9.616;2023-04-28T22:29:24;22.90;;;18.23;;
6862;SDS011;3470;48.738;9.616;2023-04-28T22:31:50;17.47;;;15.20;;
6862;SDS011;3470;48.738;9.616;2023-04-28T22:34:16;18.63;;;15.70;;
6862;SDS011;3470;48.738;9.616;2023-04-28T22:36:42;16.13;;;14.43;;
6862;SDS011;3470;48.738;9.616;2023-04-28T22:39:08;19.40;;;15.00;;
6862;SDS011;3470;48.738;9.616;2023-04-28T22:41:35;18.80;;;15.07;;
6862;SDS011;3470;48.738;9.616;2023-04-28T22:44:01;17.27;;;14.43;;
6862;SDS011;3470;48.738;9.616;2023-04-28T22:46:27;16.73;;;14.00;;
6862;SDS011;3470;48.738;9.616;2023-04-28T22:48:52;16.97;;;14.77;;
6862;SDS011;3470;48.738;9.616;2023-04-28T22:51:18;17.17;;;14.90;;
6862;SDS011;3470;48.738;9.616;2023-04-28T22:53:44;18.77;;;15.20;;
6862;SDS011;3470;48.738;9.616;2023-04-28T22:56:10;18.97;;;15.60;;
6862;SDS011;3470;48.738;9.616;2023-04-28T22:58:36;17.20;;;13.87;;
